createdAt,value
2023-03-16T00:00:47.858Z,98749.69
2023-03-16T00:03:20.467Z,98752.28
2023-03-16T00:05:49.014Z,98754.03
2023-03-16T00:08:16.754Z,98749.66
2023-03-16T00:10:46.824Z,98738.28
2023-03-16T00:13:18.042Z,98739.16
2023-03-16T00:15:51.765Z,98735.63
2023-03-16T00:18:18.839Z,98740.84
2023-03-16T00:20:49.737Z,98750.47
2023-03-16T00:23:16.360Z,98748.72
2023-03-16T00:25:43.023Z,98750.50
2023-03-16T00:28:09.630Z,98753.03
2023-03-16T00:30:36.726Z,98758.28
2023-03-16T00:33:05.020Z,98750.44
2023-03-16T00:35:34.665Z,98750.41
2023-03-16T00:38:01.394Z,98743.41
2023-03-16T00:40:28.299Z,98741.59
2023-03-16T00:42:55.115Z,98743.25
2023-03-16T00:45:23.437Z,98741.53
2023-03-16T00:47:50.091Z,98740.72
2023-03-16T00:50:16.884Z,98736.34
2023-03-16T00:52:43.639Z,98731.94
2023-03-16T00:55:11.250Z,98731.03
2023-03-16T00:57:37.937Z,98737.13
2023-03-16T01:00:16.285Z,98736.25
2023-03-16T01:02:45.339Z,98728.44
2023-03-16T01:05:13.543Z,98731.03
2023-03-16T01:07:41.264Z,98723.22
2023-03-16T01:10:09.377Z,98715.34
2023-03-16T01:12:36.111Z,98719.72
2023-03-16T01:15:02.931Z,98713.63
2023-03-16T01:17:29.627Z,98714.53
2023-03-16T01:19:56.294Z,98709.28
2023-03-16T01:22:23.223Z,98720.66
2023-03-16T01:24:49.935Z,98706.72
2023-03-16T01:27:16.622Z,98714.47
2023-03-16T01:29:46.102Z,98718.81
2023-03-16T01:32:13.287Z,98709.22
2023-03-16T01:34:40.560Z,98710.13
2023-03-16T01:37:07.659Z,98703.16
2023-03-16T01:39:57.220Z,98716.25
2023-03-16T01:42:24.206Z,98704.00
2023-03-16T01:44:57.400Z,98709.25
2023-03-16T01:47:29.510Z,98709.22
2023-03-16T01:49:57.358Z,98702.25
2023-03-16T01:52:33.367Z,98699.59
2023-03-16T01:55:08.838Z,98694.34
2023-03-16T01:57:42.489Z,98701.28
2023-03-16T02:00:20.836Z,98694.28
2023-03-16T02:03:10.528Z,98695.19
2023-03-16T02:05:59.230Z,98676.97
2023-03-16T02:08:27.556Z,98674.34
2023-03-16T02:10:56.618Z,98670.03
2023-03-16T02:13:33.840Z,98671.69
2023-03-16T02:16:00.799Z,98663.88
2023-03-16T02:18:27.595Z,98668.22
2023-03-16T02:21:25.459Z,98664.75
2023-03-16T02:23:53.361Z,98663.91
2023-03-16T02:26:35.128Z,98662.16
2023-03-16T02:29:23.263Z,98649.03
2023-03-16T02:31:52.002Z,98648.19
2023-03-16T02:34:19.377Z,98639.50
2023-03-16T02:36:48.388Z,98640.34
2023-03-16T02:39:16.972Z,98638.63
2023-03-16T02:41:46.388Z,98631.66
2023-03-16T02:44:24.273Z,98634.25
2023-03-16T02:46:56.175Z,98634.34
2023-03-16T02:49:29.812Z,98629.94
2023-03-16T02:51:57.552Z,98626.44
2023-03-16T02:54:24.709Z,98630.78
2023-03-16T02:56:51.912Z,98625.53
2023-03-16T02:59:19.446Z,98620.34
2023-03-16T03:01:46.105Z,98610.72
2023-03-16T03:04:13.334Z,98613.38
2023-03-16T03:06:40.203Z,98605.47
2023-03-16T03:09:07.674Z,98609.00
2023-03-16T03:11:34.557Z,98606.41
2023-03-16T03:14:01.249Z,98608.16
2023-03-16T03:16:28.273Z,98603.75
2023-03-16T03:18:56.295Z,98597.66
2023-03-16T03:21:24.058Z,98595.94
2023-03-16T03:23:51.827Z,98597.66
2023-03-16T03:26:18.542Z,98595.94
2023-03-16T03:28:46.402Z,98600.25
2023-03-16T03:31:15.766Z,98596.78
2023-03-16T03:33:42.464Z,98599.41
2023-03-16T03:36:09.977Z,98590.63
2023-03-16T03:38:38.293Z,98594.06
2023-03-16T03:41:09.712Z,98594.94
2023-03-16T03:43:38.420Z,98588.03
2023-03-16T03:46:07.367Z,98590.56
2023-03-16T03:48:34.806Z,98597.56
2023-03-16T03:51:02.361Z,98588.88
2023-03-16T03:53:44.559Z,98588.84
2023-03-16T03:56:27.883Z,98588.00
2023-03-16T03:58:54.587Z,98585.41
2023-03-16T04:01:34.643Z,98577.47
2023-03-16T04:04:01.360Z,98579.25
2023-03-16T04:06:28.363Z,98585.34
2023-03-16T04:08:55.339Z,98581.84
2023-03-16T04:11:25.810Z,98575.75
2023-03-16T04:13:53.429Z,98567.91
2023-03-16T04:16:20.920Z,98567.91
2023-03-16T04:18:51.209Z,98572.25
2023-03-16T04:21:18.355Z,98566.19
2023-03-16T04:23:48.114Z,98565.31
2023-03-16T04:26:15.070Z,98562.63
2023-03-16T04:28:44.483Z,98567.84
2023-03-16T04:31:14.544Z,98561.72
2023-03-16T04:33:44.262Z,98568.75
2023-03-16T04:36:12.020Z,98557.38
2023-03-16T04:38:39.316Z,98557.34
2023-03-16T04:41:06.729Z,98557.41
2023-03-16T04:43:37.617Z,98556.53
2023-03-16T04:46:17.718Z,98554.75
2023-03-16T04:48:44.828Z,98555.59
2023-03-16T04:51:11.621Z,98557.34
2023-03-16T04:53:44.570Z,98552.09
2023-03-16T04:56:19.141Z,98559.09
2023-03-16T04:58:51.168Z,98557.41
2023-03-16T05:01:19.639Z,98553.88
2023-03-16T05:03:47.605Z,98552.19
2023-03-16T05:06:14.342Z,98552.19
2023-03-16T05:08:43.308Z,98545.16
2023-03-16T05:11:10.497Z,98548.63
2023-03-16T05:13:46.968Z,98550.41
2023-03-16T05:16:14.766Z,98554.78
2023-03-16T05:18:41.910Z,98554.75
2023-03-16T05:21:08.808Z,98550.47
2023-03-16T05:23:53.012Z,98553.91
2023-03-16T05:26:19.685Z,98560.88
2023-03-16T05:28:46.852Z,98551.31
2023-03-16T05:31:15.986Z,98552.19
2023-03-16T05:33:48.225Z,98548.72
2023-03-16T05:36:18.389Z,98545.19
2023-03-16T05:38:47.962Z,98551.31
2023-03-16T05:41:24.256Z,98551.28
2023-03-16T05:44:00.842Z,98551.31
2023-03-16T05:46:37.384Z,98545.19
2023-03-16T05:49:05.331Z,98545.19
2023-03-16T05:51:32.207Z,98546.94
2023-03-16T05:54:00.763Z,98549.53
2023-03-16T05:56:34.473Z,98546.94
2023-03-16T05:59:02.639Z,98551.31
2023-03-16T06:01:29.359Z,98553.88
2023-03-16T06:03:56.514Z,98548.69
2023-03-16T06:06:26.196Z,98552.16
2023-03-16T06:08:59.094Z,98543.47
2023-03-16T06:11:27.130Z,98544.31
2023-03-16T06:13:54.002Z,98536.50
2023-03-16T06:16:20.754Z,98536.47
2023-03-16T06:18:47.469Z,98533.03
2023-03-16T06:21:14.380Z,98522.56
2023-03-16T06:23:41.510Z,98520.84
2023-03-16T06:26:09.284Z,98517.34
2023-03-16T06:28:38.000Z,98518.31
2023-03-16T06:31:05.917Z,98508.75
2023-03-16T06:33:35.255Z,98507.91
2023-03-16T06:36:02.964Z,98493.94
2023-03-16T06:38:34.106Z,98501.53
2023-03-16T06:41:08.678Z,98487.22
2023-03-16T06:43:36.743Z,98486.00
2023-03-16T06:46:03.749Z,98483.44
2023-03-16T06:48:31.400Z,98474.50
2023-03-16T06:50:58.116Z,98477.81
2023-03-16T06:53:27.361Z,98468.59
2023-03-16T06:55:55.585Z,98465.44
2023-03-16T06:58:22.453Z,98470.81
2023-03-16T07:00:49.353Z,98470.56
2023-03-16T07:03:16.067Z,98457.69
2023-03-16T07:05:48.310Z,98457.31
2023-03-16T07:08:15.194Z,98430.25
2023-03-16T07:10:42.311Z,98432.72
2023-03-16T07:13:09.001Z,98452.88
2023-03-16T07:15:35.849Z,98464.94
2023-03-16T07:18:03.388Z,98459.66
2023-03-16T07:20:32.252Z,98465.25
2023-03-16T07:23:01.188Z,98469.19
2023-03-16T07:25:28.154Z,98466.06
2023-03-16T07:27:55.103Z,98461.41
2023-03-16T07:30:28.017Z,98462.44
2023-03-16T07:32:55.134Z,98457.09
2023-03-16T07:35:23.585Z,98459.44
2023-03-16T07:37:50.656Z,98466.19
2023-03-16T07:40:18.981Z,98450.84
2023-03-16T07:42:45.895Z,98455.34
2023-03-16T07:45:25.566Z,98475.25
2023-03-16T07:47:52.608Z,98478.84
2023-03-16T07:50:31.527Z,98488.13
2023-03-16T07:52:58.328Z,98481.16
2023-03-16T07:55:26.063Z,98469.69
2023-03-16T07:57:54.018Z,98468.34
2023-03-16T08:00:28.190Z,98464.19
2023-03-16T08:02:56.225Z,98460.84
2023-03-16T08:05:22.903Z,98472.38
2023-03-16T08:07:57.321Z,98462.06
2023-03-16T08:10:26.649Z,98446.97
2023-03-16T08:13:00.612Z,98434.63
2023-03-16T08:15:27.366Z,98417.66
2023-03-16T08:18:02.529Z,98422.44
2023-03-16T08:20:30.794Z,98431.19
2023-03-16T08:22:57.879Z,98447.06
2023-03-16T08:25:27.939Z,98438.22
2023-03-16T08:28:04.422Z,98447.22
2023-03-16T08:30:31.664Z,98431.34
2023-03-16T08:33:12.856Z,98438.16
2023-03-16T08:35:43.987Z,98439.22
2023-03-16T08:38:14.201Z,98444.22
2023-03-16T08:40:48.475Z,98453.63
2023-03-16T08:43:18.018Z,98442.06
2023-03-16T08:45:46.262Z,98432.38
2023-03-16T08:48:14.814Z,98419.31
2023-03-16T08:50:44.744Z,98410.66
2023-03-16T08:53:13.736Z,98404.63
2023-03-16T08:55:44.013Z,98391.31
2023-03-16T08:58:12.231Z,98382.03
2023-03-16T09:00:39.570Z,98380.41
2023-03-16T09:03:07.216Z,98384.44
2023-03-16T09:05:34.301Z,98406.78
2023-03-16T09:08:01.560Z,98419.72
2023-03-16T09:10:28.959Z,98422.06
2023-03-16T09:12:56.611Z,98420.97
2023-03-16T09:15:23.262Z,98417.50
2023-03-16T09:17:50.422Z,98418.59
2023-03-16T09:20:22.651Z,98415.59
2023-03-16T09:22:53.568Z,98411.97
2023-03-16T09:25:20.541Z,98413.94
2023-03-16T09:27:47.203Z,98414.78
2023-03-16T09:30:14.259Z,98408.94
2023-03-16T09:32:41.290Z,98404.13
2023-03-16T09:35:08.816Z,98404.47
2023-03-16T09:37:44.869Z,98398.53
2023-03-16T09:40:22.898Z,98415.34
2023-03-16T09:43:20.670Z,98408.09
2023-03-16T09:46:13.868Z,98404.09
2023-03-16T09:48:41.207Z,98404.50
2023-03-16T09:51:18.759Z,98412.78
2023-03-16T09:53:47.154Z,98421.34
2023-03-16T09:57:10.254Z,98416.75
2023-03-16T09:59:58.951Z,98414.78
2023-03-16T10:03:02.896Z,98411.50
2023-03-16T10:14:44.527Z,98395.13
2023-03-16T10:17:29.436Z,98399.44
2023-03-16T10:20:08.960Z,98397.28
2023-03-16T10:22:39.185Z,98392.72
2023-03-16T10:25:27.180Z,98392.66
2023-03-16T10:27:54.114Z,98386.75
2023-03-16T10:30:36.148Z,98387.34
2023-03-16T10:33:28.592Z,98383.56
2023-03-16T10:35:58.003Z,98387.19
2023-03-16T10:38:28.836Z,98386.06
2023-03-16T10:40:57.715Z,98373.03
2023-03-16T10:43:25.136Z,98368.56
2023-03-16T10:45:51.978Z,98374.28
2023-03-16T10:48:21.140Z,98360.59
2023-03-16T10:50:54.722Z,98357.25
2023-03-16T10:53:28.791Z,98370.53
2023-03-16T10:56:01.953Z,98362.09
2023-03-16T10:58:39.454Z,98369.94
2023-03-16T11:01:27.310Z,98361.66
2023-03-16T11:03:56.978Z,98364.31
2023-03-16T11:06:30.853Z,98360.22
2023-03-16T11:09:14.293Z,98351.47
2023-03-16T11:11:49.316Z,98352.97
2023-03-16T11:14:21.273Z,98348.38
2023-03-16T11:16:53.594Z,98358.19
2023-03-16T11:19:24.056Z,98349.84
2023-03-16T11:21:57.072Z,98344.06
2023-03-16T11:24:37.849Z,98341.56
2023-03-16T11:27:12.676Z,98330.16
2023-03-16T11:29:54.402Z,98323.19
2023-03-16T11:32:27.829Z,98330.03
2023-03-16T11:34:54.492Z,98325.94
2023-03-16T11:37:35.396Z,98310.25
2023-03-16T11:40:43.654Z,98302.38
2023-03-16T11:43:22.136Z,98301.81
2023-03-16T11:46:30.193Z,98304.31
2023-03-16T11:49:06.633Z,98304.19
2023-03-16T11:51:58.998Z,98300.00
2023-03-16T11:54:53.032Z,98308.25
2023-03-16T11:57:22.400Z,98314.88
2023-03-16T12:00:24.457Z,98310.84
2023-03-16T12:03:05.393Z,98308.81
2023-03-16T12:06:23.325Z,98306.66
2023-03-16T12:09:19.774Z,98299.91
2023-03-16T12:11:58.565Z,98303.84
2023-03-16T12:14:36.806Z,98299.16
2023-03-16T12:17:05.633Z,98296.84
2023-03-16T12:19:49.431Z,98300.50
2023-03-16T12:22:48.303Z,98278.41
2023-03-16T12:25:25.336Z,98290.66
2023-03-16T12:27:55.612Z,98270.13
2023-03-16T12:30:59.118Z,98261.06
2023-03-16T12:33:54.527Z,98272.03
2023-03-16T12:36:55.045Z,98263.25
2023-03-16T12:39:30.739Z,98263.50
2023-03-16T12:42:20.594Z,98249.63
2023-03-16T12:45:00.864Z,98249.50
2023-03-16T12:47:33.694Z,98247.38
2023-03-16T12:50:08.711Z,98254.50
2023-03-16T12:52:43.299Z,98249.66
2023-03-16T12:55:38.262Z,98237.72
2023-03-16T12:58:07.510Z,98244.88
2023-03-16T13:00:37.247Z,98234.63
2023-03-16T13:03:06.469Z,98238.25
2023-03-16T13:05:36.100Z,98240.22
2023-03-16T13:08:13.510Z,98239.53
2023-03-16T13:10:40.444Z,98237.09
2023-03-16T13:13:16.025Z,98236.13
2023-03-16T13:15:47.273Z,98234.38
2023-03-16T13:18:17.031Z,98222.28
2023-03-16T13:20:57.007Z,98227.94
2023-03-16T13:23:30.168Z,98218.94
2023-03-16T13:26:17.693Z,98212.91
2023-03-16T13:28:50.688Z,98221.41
2023-03-16T13:31:37.340Z,98223.09
2023-03-16T13:34:08.367Z,98213.44
2023-03-16T13:36:37.082Z,98211.94
2023-03-16T13:39:17.420Z,98209.53
2023-03-16T13:41:59.861Z,98209.13
2023-03-16T13:44:28.220Z,98209.06
2023-03-16T13:46:56.165Z,98209.41
2023-03-16T13:49:23.637Z,98206.97
2023-03-16T13:51:50.341Z,98214.97
2023-03-16T13:54:29.707Z,98216.22
2023-03-16T13:56:59.154Z,98212.97
2023-03-16T13:59:26.764Z,98217.22
2023-03-16T14:01:58.595Z,98210.44
2023-03-16T14:04:29.161Z,98211.72
2023-03-16T14:07:01.859Z,98198.31
2023-03-16T14:09:33.104Z,98209.22
2023-03-16T14:12:00.600Z,98199.53
2023-03-16T14:14:37.807Z,98201.13
2023-03-16T14:17:14.956Z,98193.88
2023-03-16T14:19:52.845Z,98186.41
2023-03-16T14:22:39.782Z,98199.09
2023-03-16T14:25:07.117Z,98191.03
2023-03-16T14:27:39.645Z,98192.25
2023-03-16T14:30:27.640Z,98201.81
2023-03-16T14:32:58.575Z,98195.09
2023-03-16T14:35:31.854Z,98180.31
2023-03-16T14:38:22.336Z,98181.44
2023-03-16T14:40:54.808Z,98174.38
2023-03-16T14:43:31.523Z,98183.09
2023-03-16T14:45:59.126Z,98168.19
2023-03-16T14:48:26.640Z,98178.91
2023-03-16T14:50:56.245Z,98170.75
2023-03-16T14:53:24.649Z,98165.66
2023-03-16T14:55:52.131Z,98171.47
2023-03-16T14:58:18.766Z,98171.00
2023-03-16T15:00:52.683Z,98163.63
2023-03-16T15:03:23.721Z,98151.50
2023-03-16T15:05:52.051Z,98157.81
2023-03-16T15:08:31.353Z,98152.03
2023-03-16T15:11:02.019Z,98140.34
2023-03-16T15:13:35.092Z,98145.91
2023-03-16T15:16:04.455Z,98139.91
2023-03-16T15:18:33.441Z,98139.19
2023-03-16T15:21:02.106Z,98143.78
2023-03-16T15:23:30.794Z,98137.41
2023-03-16T15:25:59.927Z,98140.16
2023-03-16T15:28:28.152Z,98134.59
2023-03-16T15:30:57.402Z,98135.59
2023-03-16T15:33:25.185Z,98135.53
2023-03-16T15:35:56.185Z,98136.00
2023-03-16T15:38:33.468Z,98125.47
2023-03-16T15:41:00.539Z,98124.91
2023-03-16T15:43:29.737Z,98128.97
2023-03-16T15:45:58.808Z,98134.69
2023-03-16T15:48:26.304Z,98129.66
2023-03-16T15:51:22.297Z,98143.22
2023-03-16T15:54:02.278Z,98129.25
2023-03-16T15:56:41.198Z,98133.28
2023-03-16T15:59:17.111Z,98130.00
2023-03-16T16:01:47.779Z,98121.34
2023-03-16T16:04:18.952Z,98122.44
2023-03-16T16:06:47.463Z,98129.84
2023-03-16T16:09:14.254Z,98125.31
2023-03-16T16:11:41.595Z,98118.19
2023-03-16T16:14:23.382Z,98120.56
2023-03-16T16:16:50.357Z,98113.16
2023-03-16T16:19:18.721Z,98121.19
2023-03-16T16:21:46.379Z,98119.50
2023-03-16T16:24:13.231Z,98123.19
2023-03-16T16:26:51.930Z,98119.91
2023-03-16T16:29:23.638Z,98117.81
2023-03-16T16:31:54.294Z,98113.25
2023-03-16T16:34:24.333Z,98120.66
2023-03-16T16:36:51.335Z,98114.16
2023-03-16T16:39:17.930Z,98109.88
2023-03-16T16:41:45.071Z,98116.50
2023-03-16T16:44:18.554Z,98122.38
2023-03-16T16:46:48.046Z,98107.50
2023-03-16T16:49:19.534Z,98113.91
2023-03-16T16:51:46.387Z,98109.94
2023-03-16T16:54:18.131Z,98106.94
2023-03-16T16:56:46.452Z,98108.31
2023-03-16T16:59:18.299Z,98109.97
2023-03-16T17:01:46.989Z,98107.63
2023-03-16T17:04:19.427Z,98108.78
2023-03-16T17:06:46.805Z,98109.88
2023-03-16T17:09:14.375Z,98111.63
2023-03-16T17:11:43.527Z,98107.69
2023-03-16T17:14:17.024Z,98112.00
2023-03-16T17:16:44.756Z,98114.13
2023-03-16T17:19:23.339Z,98109.69
2023-03-16T17:21:51.010Z,98121.09
2023-03-16T17:24:17.891Z,98100.94
2023-03-16T17:26:47.791Z,98103.81
2023-03-16T17:29:21.077Z,98122.47
2023-03-16T17:31:49.031Z,98115.78
2023-03-16T17:34:18.913Z,98109.69
2023-03-16T17:36:46.814Z,98110.94
2023-03-16T17:39:31.588Z,98106.91
2023-03-16T17:42:02.738Z,98105.56
2023-03-16T17:44:50.732Z,98102.84
2023-03-16T17:47:21.757Z,98096.97
2023-03-16T17:49:49.039Z,98096.44
2023-03-16T17:52:18.703Z,98091.91
2023-03-16T17:54:47.264Z,98094.03
2023-03-16T17:57:19.251Z,98096.03
2023-03-16T17:59:46.928Z,98099.00
2023-03-16T18:02:50.006Z,98096.06
2023-03-16T18:05:22.604Z,98093.88
2023-03-16T18:07:50.244Z,98096.44
2023-03-16T18:10:29.241Z,98098.03
2023-03-16T18:13:02.363Z,98093.38
2023-03-16T18:15:32.258Z,98093.13
2023-03-16T18:18:00.493Z,98089.63
2023-03-16T18:20:31.465Z,98092.59
2023-03-16T18:23:00.120Z,98090.94
2023-03-16T18:25:36.164Z,98091.50
2023-03-16T18:28:03.766Z,98090.59
2023-03-16T18:30:31.677Z,98095.03
2023-03-16T18:33:00.116Z,98094.00
2023-03-16T18:35:27.205Z,98090.91
2023-03-16T18:37:55.262Z,98095.88
2023-03-16T18:40:24.537Z,98102.41
2023-03-16T18:42:53.807Z,98098.00
2023-03-16T18:45:21.272Z,98091.22
2023-03-16T18:47:53.811Z,98093.88
2023-03-16T18:50:27.644Z,98088.13
2023-03-16T18:52:55.332Z,98087.25
2023-03-16T18:55:24.505Z,98088.78
2023-03-16T18:57:52.800Z,98099.13
2023-03-16T19:00:22.246Z,98099.06
2023-03-16T19:02:54.321Z,98093.81
2023-03-16T19:05:35.705Z,98095.84
2023-03-16T19:08:04.956Z,98094.94
2023-03-16T19:10:35.486Z,98088.88
2023-03-16T19:13:02.343Z,98085.59
2023-03-16T19:15:32.647Z,98089.16
2023-03-16T19:17:59.856Z,98084.19
2023-03-16T19:20:29.436Z,98081.38
2023-03-16T19:23:05.834Z,98087.72
2023-03-16T19:25:36.278Z,98091.41
2023-03-16T19:28:05.687Z,98088.13
2023-03-16T19:30:35.053Z,98087.38
2023-03-16T19:33:02.005Z,98090.63
2023-03-16T19:35:48.603Z,98083.94
2023-03-16T19:38:18.106Z,98075.25
2023-03-16T19:40:46.023Z,98074.41
2023-03-16T19:43:18.431Z,98079.13
2023-03-16T19:45:46.801Z,98076.59
2023-03-16T19:48:22.660Z,98077.59
2023-03-16T19:50:50.952Z,98071.63
2023-03-16T19:53:23.017Z,98081.81
2023-03-16T19:55:52.049Z,98077.03
2023-03-16T19:58:41.465Z,98085.69
2023-03-16T20:01:21.907Z,98081.50
2023-03-16T20:03:50.074Z,98084.97
2023-03-16T20:06:19.887Z,98078.69
2023-03-16T20:08:47.334Z,98072.84
2023-03-16T20:11:29.084Z,98079.59
2023-03-16T20:13:57.134Z,98080.66
2023-03-16T20:16:34.845Z,98072.94
2023-03-16T20:19:06.627Z,98063.38
2023-03-16T20:21:33.264Z,98067.81
2023-03-16T20:23:59.932Z,98067.09
2023-03-16T20:26:32.213Z,98068.97
2023-03-16T20:29:00.788Z,98063.84
2023-03-16T20:31:31.294Z,98065.84
2023-03-16T20:33:58.401Z,98063.34
2023-03-16T20:36:26.737Z,98061.75
2023-03-16T20:38:53.423Z,98054.66
2023-03-16T20:41:29.075Z,98059.88
2023-03-16T20:43:58.470Z,98057.50
2023-03-16T20:46:30.883Z,98062.75
2023-03-16T20:49:00.530Z,98056.50
2023-03-16T20:51:28.688Z,98057.44
2023-03-16T20:53:55.415Z,98053.94
2023-03-16T20:56:25.292Z,98046.88
2023-03-16T20:58:54.633Z,98043.41
2023-03-16T21:01:23.197Z,98037.44
2023-03-16T21:03:53.047Z,98038.59
2023-03-16T21:06:29.818Z,98035.44
2023-03-16T21:08:58.495Z,98042.56
2023-03-16T21:11:34.113Z,98039.66
2023-03-16T21:14:01.150Z,98029.84
2023-03-16T21:16:28.939Z,98032.41
2023-03-16T21:18:56.025Z,98035.91
2023-03-16T21:21:23.255Z,98035.03
2023-03-16T21:23:50.550Z,98020.09
2023-03-16T21:26:20.830Z,98023.69
2023-03-16T21:29:06.500Z,98016.66
2023-03-16T21:31:33.288Z,98014.88
2023-03-16T21:34:00.700Z,98017.72
2023-03-16T21:36:27.600Z,98012.31
2023-03-16T21:38:55.797Z,98018.41
2023-03-16T21:41:23.272Z,98012.50
2023-03-16T21:43:50.306Z,98011.00
2023-03-16T21:46:19.545Z,98013.81
2023-03-16T21:48:51.708Z,98010.00
2023-03-16T21:51:25.153Z,98002.13
2023-03-16T21:53:53.402Z,98007.28
2023-03-16T21:56:25.771Z,97997.78
2023-03-16T21:58:53.803Z,97996.13
2023-03-16T22:01:26.617Z,97989.06
2023-03-16T22:03:57.470Z,97993.50
2023-03-16T22:06:27.994Z,97992.72
2023-03-16T22:08:55.183Z,97979.50
2023-03-16T22:11:24.430Z,97983.16
2023-03-16T22:13:51.737Z,97988.19
2023-03-16T22:16:21.651Z,97974.94
2023-03-16T22:18:50.971Z,97979.34
2023-03-16T22:21:35.135Z,97976.66
2023-03-16T22:24:05.307Z,97961.66
2023-03-16T22:26:32.118Z,97956.25
2023-03-16T22:29:00.645Z,97958.22
2023-03-16T22:31:38.651Z,97962.66
2023-03-16T22:34:06.685Z,97956.56
2023-03-16T22:36:33.986Z,97968.00
2023-03-16T22:39:12.188Z,97959.31
2023-03-16T22:41:38.907Z,97958.53
2023-03-16T22:44:05.652Z,97961.84
2023-03-16T22:46:32.321Z,97965.31
2023-03-16T22:48:59.068Z,97954.50
2023-03-16T22:51:31.458Z,97955.34
2023-03-16T22:54:11.158Z,97955.38
2023-03-16T22:56:39.201Z,97950.00
2023-03-16T22:59:10.688Z,97933.56
2023-03-16T23:01:40.806Z,97943.53
2023-03-16T23:04:19.852Z,97940.75
2023-03-16T23:06:48.548Z,97954.09
2023-03-16T23:09:17.312Z,97955.66
2023-03-16T23:11:46.391Z,97944.03
2023-03-16T23:14:19.749Z,97941.50
2023-03-16T23:16:47.938Z,97932.38
2023-03-16T23:19:29.848Z,97928.41
2023-03-16T23:22:00.841Z,97917.59
2023-03-16T23:24:27.722Z,97915.09
2023-03-16T23:26:55.411Z,97908.25
2023-03-16T23:29:23.600Z,97902.06
2023-03-16T23:31:50.559Z,97910.69
2023-03-16T23:34:20.609Z,97906.69
2023-03-16T23:36:47.511Z,97898.34
2023-03-16T23:39:14.315Z,97900.84
2023-03-16T23:41:44.042Z,97905.34
2023-03-16T23:44:17.061Z,97909.69
2023-03-16T23:46:44.511Z,97908.22
2023-03-16T23:49:27.646Z,97906.38
2023-03-16T23:51:56.186Z,97900.78
2023-03-16T23:54:26.166Z,97911.84
2023-03-16T23:56:53.123Z,97916.81
2023-03-16T23:59:20.881Z,97923.38
